sensor_id;sensor_type;location;lat;lon;timestamp;P1;durP1;ratioP1;P2;durP2;ratioP2
1308;SDS011;647;48.840;9.314;2022-09-11T00:01:44;58.60;;;3.20;;
1308;SDS011;647;48.840;9.314;2022-09-11T00:04:12;58.60;;;3.00;;
1308;SDS011;647;48.840;9.314;2022-09-11T00:06:39;59.80;;;2.97;;
1308;SDS011;647;48.840;9.314;2022-09-11T00:09:07;58.27;;;2.73;;
1308;SDS011;647;48.840;9.314;2022-09-11T00:11:35;58.80;;;3.57;;
1308;SDS011;647;48.840;9.314;2022-09-11T00:14:04;59.23;;;3.33;;
1308;SDS011;647;48.840;9.314;2022-09-11T00:16:32;58.50;;;2.97;;
1308;SDS011;647;48.840;9.314;2022-09-11T00:19:02;57.97;;;2.53;;
1308;SDS011;647;48.840;9.314;2022-09-11T00:21:29;58.37;;;2.70;;
1308;SDS011;647;48.840;9.314;2022-09-11T00:23:57;58.17;;;2.83;;
1308;SDS011;647;48.840;9.314;2022-09-11T00:26:24;58.57;;;3.00;;
1308;SDS011;647;48.840;9.314;2022-09-11T00:28:51;58.40;;;2.90;;
1308;SDS011;647;48.840;9.314;2022-09-11T00:31:20;58.60;;;2.90;;
1308;SDS011;647;48.840;9.314;2022-09-11T00:33:48;58.67;;;3.00;;
1308;SDS011;647;48.840;9.314;2022-09-11T00:36:17;58.00;;;2.70;;
1308;SDS011;647;48.840;9.314;2022-09-11T00:38:45;63.40;;;3.07;;
1308;SDS011;647;48.840;9.314;2022-09-11T00:41:13;58.50;;;2.97;;
1308;SDS011;647;48.840;9.314;2022-09-11T00:43:50;59.07;;;3.47;;
1308;SDS011;647;48.840;9.314;2022-09-11T00:46:19;58.47;;;2.93;;
1308;SDS011;647;48.840;9.314;2022-09-11T00:48:46;59.00;;;3.17;;
1308;SDS011;647;48.840;9.314;2022-09-11T00:51:14;58.40;;;3.07;;
1308;SDS011;647;48.840;9.314;2022-09-11T00:53:45;58.43;;;2.80;;
1308;SDS011;647;48.840;9.314;2022-09-11T00:56:13;59.20;;;2.80;;
1308;SDS011;647;48.840;9.314;2022-09-11T00:58:40;61.70;;;3.33;;
1308;SDS011;647;48.840;9.314;2022-09-11T01:01:09;58.37;;;3.10;;
1308;SDS011;647;48.840;9.314;2022-09-11T01:03:37;58.67;;;3.00;;
1308;SDS011;647;48.840;9.314;2022-09-11T01:06:04;58.30;;;2.80;;
1308;SDS011;647;48.840;9.314;2022-09-11T01:08:32;59.30;;;2.87;;
1308;SDS011;647;48.840;9.314;2022-09-11T01:11:03;58.93;;;3.17;;
1308;SDS011;647;48.840;9.314;2022-09-11T01:13:37;58.30;;;2.90;;
1308;SDS011;647;48.840;9.314;2022-09-11T01:16:08;60.37;;;3.10;;
1308;SDS011;647;48.840;9.314;2022-09-11T01:18:38;59.10;;;2.90;;
1308;SDS011;647;48.840;9.314;2022-09-11T01:21:14;58.17;;;2.83;;
1308;SDS011;647;48.840;9.314;2022-09-11T01:23:54;58.23;;;2.90;;
1308;SDS011;647;48.840;9.314;2022-09-11T01:26:32;58.70;;;2.70;;
1308;SDS011;647;48.840;9.314;2022-09-11T01:29:06;63.13;;;2.70;;
1308;SDS011;647;48.840;9.314;2022-09-11T01:31:40;64.97;;;3.20;;
1308;SDS011;647;48.840;9.314;2022-09-11T01:34:11;58.50;;;3.07;;
1308;SDS011;647;48.840;9.314;2022-09-11T01:36:40;58.17;;;2.80;;
1308;SDS011;647;48.840;9.314;2022-09-11T01:39:09;58.20;;;2.50;;
1308;SDS011;647;48.840;9.314;2022-09-11T01:41:37;58.17;;;2.70;;
1308;SDS011;647;48.840;9.314;2022-09-11T01:44:08;69.30;;;3.47;;
1308;SDS011;647;48.840;9.314;2022-09-11T01:46:38;58.30;;;2.70;;
1308;SDS011;647;48.840;9.314;2022-09-11T01:49:07;57.87;;;2.50;;
1308;SDS011;647;48.840;9.314;2022-09-11T01:51:36;59.17;;;3.00;;
1308;SDS011;647;48.840;9.314;2022-09-11T01:54:05;58.17;;;3.10;;
1308;SDS011;647;48.840;9.314;2022-09-11T01:56:35;58.87;;;3.10;;
1308;SDS011;647;48.840;9.314;2022-09-11T01:59:05;58.70;;;2.93;;
1308;SDS011;647;48.840;9.314;2022-09-11T02:01:34;58.17;;;2.90;;
1308;SDS011;647;48.840;9.314;2022-09-11T02:04:03;59.13;;;3.00;;
1308;SDS011;647;48.840;9.314;2022-09-11T02:06:33;58.20;;;3.03;;
1308;SDS011;647;48.840;9.314;2022-09-11T02:09:01;58.20;;;3.30;;
1308;SDS011;647;48.840;9.314;2022-09-11T02:11:30;59.07;;;2.80;;
1308;SDS011;647;48.840;9.314;2022-09-11T02:14:00;58.87;;;3.47;;
1308;SDS011;647;48.840;9.314;2022-09-11T02:16:33;58.70;;;2.93;;
1308;SDS011;647;48.840;9.314;2022-09-11T02:19:03;58.27;;;2.80;;
1308;SDS011;647;48.840;9.314;2022-09-11T02:21:31;60.80;;;2.77;;
1308;SDS011;647;48.840;9.314;2022-09-11T02:23:58;58.20;;;2.77;;
1308;SDS011;647;48.840;9.314;2022-09-11T02:26:26;58.30;;;3.27;;
1308;SDS011;647;48.840;9.314;2022-09-11T02:28:54;62.10;;;3.13;;
1308;SDS011;647;48.840;9.314;2022-09-11T02:31:22;58.80;;;2.90;;
1308;SDS011;647;48.840;9.314;2022-09-11T02:33:49;58.37;;;3.00;;
1308;SDS011;647;48.840;9.314;2022-09-11T02:39:05;58.97;;;3.10;;
1308;SDS011;647;48.840;9.314;2022-09-11T02:41:34;58.80;;;2.90;;
1308;SDS011;647;48.840;9.314;2022-09-11T02:44:05;58.30;;;2.90;;
1308;SDS011;647;48.840;9.314;2022-09-11T02:46:45;58.30;;;3.13;;
1308;SDS011;647;48.840;9.314;2022-09-11T02:49:17;58.70;;;2.90;;
1308;SDS011;647;48.840;9.314;2022-09-11T02:51:48;58.23;;;2.90;;
1308;SDS011;647;48.840;9.314;2022-09-11T02:54:22;58.13;;;2.77;;
1308;SDS011;647;48.840;9.314;2022-09-11T02:56:51;59.40;;;3.40;;
1308;SDS011;647;48.840;9.314;2022-09-11T02:59:22;58.77;;;3.30;;
1308;SDS011;647;48.840;9.314;2022-09-11T03:01:50;58.57;;;3.13;;
1308;SDS011;647;48.840;9.314;2022-09-11T03:04:17;58.90;;;3.13;;
1308;SDS011;647;48.840;9.314;2022-09-11T03:06:46;61.00;;;2.77;;
1308;SDS011;647;48.840;9.314;2022-09-11T03:09:14;58.90;;;3.30;;
1308;SDS011;647;48.840;9.314;2022-09-11T03:11:42;58.70;;;3.60;;
1308;SDS011;647;48.840;9.314;2022-09-11T03:14:09;59.20;;;3.80;;
1308;SDS011;647;48.840;9.314;2022-09-11T03:16:37;58.70;;;3.37;;
1308;SDS011;647;48.840;9.314;2022-09-11T03:19:05;58.70;;;3.77;;
1308;SDS011;647;48.840;9.314;2022-09-11T03:21:32;58.43;;;3.17;;
1308;SDS011;647;48.840;9.314;2022-09-11T03:24:00;58.53;;;3.40;;
1308;SDS011;647;48.840;9.314;2022-09-11T03:26:28;59.17;;;3.87;;
1308;SDS011;647;48.840;9.314;2022-09-11T03:28:58;58.60;;;3.30;;
1308;SDS011;647;48.840;9.314;2022-09-11T03:31:25;59.37;;;3.40;;
1308;SDS011;647;48.840;9.314;2022-09-11T03:33:53;59.57;;;4.00;;
1308;SDS011;647;48.840;9.314;2022-09-11T03:36:20;58.80;;;3.70;;
1308;SDS011;647;48.840;9.314;2022-09-11T03:38:47;61.30;;;3.80;;
1308;SDS011;647;48.840;9.314;2022-09-11T03:41:15;61.67;;;3.80;;
1308;SDS011;647;48.840;9.314;2022-09-11T03:43:42;59.37;;;3.87;;
1308;SDS011;647;48.840;9.314;2022-09-11T03:46:10;58.70;;;3.40;;
1308;SDS011;647;48.840;9.314;2022-09-11T03:48:37;59.30;;;3.50;;
1308;SDS011;647;48.840;9.314;2022-09-11T03:51:04;58.73;;;3.33;;
1308;SDS011;647;48.840;9.314;2022-09-11T03:53:32;58.47;;;3.37;;
1308;SDS011;647;48.840;9.314;2022-09-11T03:55:59;58.97;;;3.90;;
1308;SDS011;647;48.840;9.314;2022-09-11T03:58:28;59.83;;;3.70;;
1308;SDS011;647;48.840;9.314;2022-09-11T04:00:55;60.00;;;4.47;;
1308;SDS011;647;48.840;9.314;2022-09-11T04:03:23;59.43;;;3.47;;
1308;SDS011;647;48.840;9.314;2022-09-11T04:05:57;58.77;;;3.30;;
1308;SDS011;647;48.840;9.314;2022-09-11T04:08:25;58.53;;;3.50;;
1308;SDS011;647;48.840;9.314;2022-09-11T04:10:57;59.47;;;4.50;;
1308;SDS011;647;48.840;9.314;2022-09-11T04:13:26;58.37;;;3.20;;
1308;SDS011;647;48.840;9.314;2022-09-11T04:15:53;59.40;;;3.90;;
1308;SDS011;647;48.840;9.314;2022-09-11T04:18:25;59.27;;;3.97;;
1308;SDS011;647;48.840;9.314;2022-09-11T04:20:52;60.07;;;3.70;;
1308;SDS011;647;48.840;9.314;2022-09-11T04:23:19;61.90;;;4.20;;
1308;SDS011;647;48.840;9.314;2022-09-11T04:25:46;58.80;;;3.40;;
1308;SDS011;647;48.840;9.314;2022-09-11T04:28:13;58.77;;;3.70;;
1308;SDS011;647;48.840;9.314;2022-09-11T04:30:40;59.60;;;4.93;;
1308;SDS011;647;48.840;9.314;2022-09-11T04:33:07;63.13;;;4.00;;
1308;SDS011;647;48.840;9.314;2022-09-11T04:35:39;58.37;;;3.53;;
1308;SDS011;647;48.840;9.314;2022-09-11T04:38:06;63.60;;;3.90;;
1308;SDS011;647;48.840;9.314;2022-09-11T04:40:33;60.27;;;4.27;;
1308;SDS011;647;48.840;9.314;2022-09-11T04:43:00;61.20;;;3.97;;
1308;SDS011;647;48.840;9.314;2022-09-11T04:45:28;59.00;;;3.77;;
1308;SDS011;647;48.840;9.314;2022-09-11T04:47:57;58.57;;;3.97;;
1308;SDS011;647;48.840;9.314;2022-09-11T04:50:25;58.97;;;3.73;;
1308;SDS011;647;48.840;9.314;2022-09-11T04:52:56;59.83;;;3.80;;
1308;SDS011;647;48.840;9.314;2022-09-11T04:55:23;59.17;;;3.80;;
1308;SDS011;647;48.840;9.314;2022-09-11T04:57:51;59.10;;;3.80;;
1308;SDS011;647;48.840;9.314;2022-09-11T05:00:18;60.10;;;4.57;;
1308;SDS011;647;48.840;9.314;2022-09-11T05:02:45;59.10;;;3.73;;
1308;SDS011;647;48.840;9.314;2022-09-11T05:05:13;59.20;;;4.17;;
1308;SDS011;647;48.840;9.314;2022-09-11T05:07:40;59.27;;;4.27;;
1308;SDS011;647;48.840;9.314;2022-09-11T05:10:09;60.50;;;4.70;;
1308;SDS011;647;48.840;9.314;2022-09-11T05:12:36;59.20;;;4.57;;
1308;SDS011;647;48.840;9.314;2022-09-11T05:15:04;58.70;;;3.63;;
1308;SDS011;647;48.840;9.314;2022-09-11T05:17:31;58.90;;;3.80;;
1308;SDS011;647;48.840;9.314;2022-09-11T05:19:58;59.00;;;3.87;;
1308;SDS011;647;48.840;9.314;2022-09-11T05:22:25;62.67;;;5.63;;
1308;SDS011;647;48.840;9.314;2022-09-11T05:24:52;59.40;;;4.30;;
1308;SDS011;647;48.840;9.314;2022-09-11T05:27:21;59.80;;;4.40;;
1308;SDS011;647;48.840;9.314;2022-09-11T05:29:48;61.57;;;4.67;;
1308;SDS011;647;48.840;9.314;2022-09-11T05:32:15;59.70;;;4.23;;
1308;SDS011;647;48.840;9.314;2022-09-11T05:34:42;59.67;;;4.27;;
1308;SDS011;647;48.840;9.314;2022-09-11T05:37:09;62.30;;;4.97;;
1308;SDS011;647;48.840;9.314;2022-09-11T05:39:36;60.17;;;4.67;;
1308;SDS011;647;48.840;9.314;2022-09-11T05:42:03;60.60;;;4.40;;
1308;SDS011;647;48.840;9.314;2022-09-11T05:44:32;59.07;;;4.13;;
1308;SDS011;647;48.840;9.314;2022-09-11T05:47:01;58.90;;;3.73;;
1308;SDS011;647;48.840;9.314;2022-09-11T05:49:28;59.83;;;4.60;;
1308;SDS011;647;48.840;9.314;2022-09-11T05:51:55;59.57;;;4.47;;
1308;SDS011;647;48.840;9.314;2022-09-11T05:54:22;59.97;;;4.70;;
1308;SDS011;647;48.840;9.314;2022-09-11T05:56:49;61.03;;;4.70;;
1308;SDS011;647;48.840;9.314;2022-09-11T05:59:16;59.77;;;4.27;;
1308;SDS011;647;48.840;9.314;2022-09-11T06:01:45;62.33;;;5.30;;
1308;SDS011;647;48.840;9.314;2022-09-11T06:04:13;60.17;;;4.83;;
1308;SDS011;647;48.840;9.314;2022-09-11T06:06:42;60.17;;;4.70;;
1308;SDS011;647;48.840;9.314;2022-09-11T06:09:11;61.10;;;4.50;;
1308;SDS011;647;48.840;9.314;2022-09-11T06:11:38;61.10;;;4.47;;
1308;SDS011;647;48.840;9.314;2022-09-11T06:14:06;62.17;;;4.20;;
1308;SDS011;647;48.840;9.314;2022-09-11T06:16:33;60.50;;;5.37;;
1308;SDS011;647;48.840;9.314;2022-09-11T06:19:01;60.10;;;5.07;;
1308;SDS011;647;48.840;9.314;2022-09-11T06:21:28;60.93;;;5.23;;
1308;SDS011;647;48.840;9.314;2022-09-11T06:23:56;60.37;;;4.80;;
1308;SDS011;647;48.840;9.314;2022-09-11T06:26:23;61.03;;;4.60;;
1308;SDS011;647;48.840;9.314;2022-09-11T06:28:51;60.27;;;4.80;;
1308;SDS011;647;48.840;9.314;2022-09-11T06:31:19;59.77;;;4.83;;
1308;SDS011;647;48.840;9.314;2022-09-11T06:33:46;62.30;;;4.90;;
1308;SDS011;647;48.840;9.314;2022-09-11T06:36:16;60.07;;;5.07;;
1308;SDS011;647;48.840;9.314;2022-09-11T06:38:44;59.43;;;4.43;;
1308;SDS011;647;48.840;9.314;2022-09-11T06:41:12;60.47;;;4.90;;
1308;SDS011;647;48.840;9.314;2022-09-11T06:43:40;59.97;;;4.80;;
1308;SDS011;647;48.840;9.314;2022-09-11T06:46:08;60.30;;;4.53;;
1308;SDS011;647;48.840;9.314;2022-09-11T06:48:37;62.07;;;5.90;;
1308;SDS011;647;48.840;9.314;2022-09-11T06:51:05;61.70;;;5.47;;
1308;SDS011;647;48.840;9.314;2022-09-11T06:53:33;60.47;;;4.97;;
1308;SDS011;647;48.840;9.314;2022-09-11T06:56:01;59.97;;;5.20;;
1308;SDS011;647;48.840;9.314;2022-09-11T06:58:28;63.17;;;6.37;;
1308;SDS011;647;48.840;9.314;2022-09-11T07:00:56;60.27;;;4.90;;
1308;SDS011;647;48.840;9.314;2022-09-11T07:03:27;61.30;;;5.50;;
1308;SDS011;647;48.840;9.314;2022-09-11T07:05:54;61.60;;;5.33;;
1308;SDS011;647;48.840;9.314;2022-09-11T07:08:21;60.20;;;5.10;;
1308;SDS011;647;48.840;9.314;2022-09-11T07:10:50;61.07;;;4.80;;
1308;SDS011;647;48.840;9.314;2022-09-11T07:13:17;60.67;;;5.30;;
1308;SDS011;647;48.840;9.314;2022-09-11T07:15:44;60.50;;;5.23;;
1308;SDS011;647;48.840;9.314;2022-09-11T07:18:13;59.87;;;4.30;;
1308;SDS011;647;48.840;9.314;2022-09-11T07:20:41;60.40;;;5.07;;
1308;SDS011;647;48.840;9.314;2022-09-11T07:23:09;63.97;;;5.80;;
1308;SDS011;647;48.840;9.314;2022-09-11T07:25:36;60.30;;;4.10;;
1308;SDS011;647;48.840;9.314;2022-09-11T07:28:05;70.40;;;6.10;;
1308;SDS011;647;48.840;9.314;2022-09-11T07:30:32;60.87;;;4.90;;
1308;SDS011;647;48.840;9.314;2022-09-11T07:33:00;60.70;;;5.10;;
1308;SDS011;647;48.840;9.314;2022-09-11T07:35:27;62.77;;;5.77;;
1308;SDS011;647;48.840;9.314;2022-09-11T07:37:55;61.40;;;4.77;;
1308;SDS011;647;48.840;9.314;2022-09-11T07:40:22;59.27;;;4.40;;
1308;SDS011;647;48.840;9.314;2022-09-11T07:42:49;61.77;;;5.50;;
1308;SDS011;647;48.840;9.314;2022-09-11T07:45:17;60.50;;;4.20;;
1308;SDS011;647;48.840;9.314;2022-09-11T07:47:45;60.17;;;4.93;;
1308;SDS011;647;48.840;9.314;2022-09-11T07:50:12;60.37;;;4.70;;
1308;SDS011;647;48.840;9.314;2022-09-11T07:52:39;60.77;;;5.10;;
1308;SDS011;647;48.840;9.314;2022-09-11T07:55:07;59.77;;;4.20;;
1308;SDS011;647;48.840;9.314;2022-09-11T07:57:34;59.70;;;4.67;;
1308;SDS011;647;48.840;9.314;2022-09-11T08:00:02;60.80;;;5.20;;
1308;SDS011;647;48.840;9.314;2022-09-11T08:02:32;59.60;;;4.40;;
1308;SDS011;647;48.840;9.314;2022-09-11T08:04:59;60.53;;;4.50;;
1308;SDS011;647;48.840;9.314;2022-09-11T08:07:26;62.27;;;5.10;;
1308;SDS011;647;48.840;9.314;2022-09-11T08:09:55;59.60;;;4.50;;
1308;SDS011;647;48.840;9.314;2022-09-11T08:12:22;61.93;;;4.20;;
1308;SDS011;647;48.840;9.314;2022-09-11T08:14:49;59.60;;;4.27;;
1308;SDS011;647;48.840;9.314;2022-09-11T08:17:16;63.00;;;4.93;;
1308;SDS011;647;48.840;9.314;2022-09-11T08:19:44;59.73;;;4.50;;
1308;SDS011;647;48.840;9.314;2022-09-11T08:22:11;60.57;;;5.00;;
1308;SDS011;647;48.840;9.314;2022-09-11T08:24:39;58.77;;;4.23;;
1308;SDS011;647;48.840;9.314;2022-09-11T08:27:06;59.80;;;4.30;;
1308;SDS011;647;48.840;9.314;2022-09-11T08:29:33;61.17;;;5.13;;
1308;SDS011;647;48.840;9.314;2022-09-11T08:32:00;61.00;;;4.97;;
1308;SDS011;647;48.840;9.314;2022-09-11T08:34:28;60.80;;;4.47;;
1308;SDS011;647;48.840;9.314;2022-09-11T08:36:56;59.47;;;4.43;;
1308;SDS011;647;48.840;9.314;2022-09-11T08:39:23;59.87;;;4.33;;
1308;SDS011;647;48.840;9.314;2022-09-11T08:41:51;59.90;;;4.63;;
1308;SDS011;647;48.840;9.314;2022-09-11T08:44:21;60.67;;;5.23;;
1308;SDS011;647;48.840;9.314;2022-09-11T08:46:50;59.63;;;4.10;;
1308;SDS011;647;48.840;9.314;2022-09-11T08:49:22;59.90;;;4.30;;
1308;SDS011;647;48.840;9.314;2022-09-11T08:51:49;60.83;;;4.57;;
1308;SDS011;647;48.840;9.314;2022-09-11T08:54:21;60.10;;;4.80;;
1308;SDS011;647;48.840;9.314;2022-09-11T08:56:52;60.00;;;5.10;;
1308;SDS011;647;48.840;9.314;2022-09-11T08:59:21;60.17;;;5.07;;
1308;SDS011;647;48.840;9.314;2022-09-11T09:01:54;59.67;;;4.90;;
1308;SDS011;647;48.840;9.314;2022-09-11T09:04:30;61.90;;;4.80;;
1308;SDS011;647;48.840;9.314;2022-09-11T09:07:04;60.70;;;4.47;;
1308;SDS011;647;48.840;9.314;2022-09-11T09:09:37;59.47;;;3.90;;
1308;SDS011;647;48.840;9.314;2022-09-11T09:12:07;59.43;;;4.07;;
1308;SDS011;647;48.840;9.314;2022-09-11T09:17:26;60.23;;;4.97;;
1308;SDS011;647;48.840;9.314;2022-09-11T09:19:55;60.10;;;4.70;;
1308;SDS011;647;48.840;9.314;2022-09-11T09:22:26;59.90;;;4.00;;
1308;SDS011;647;48.840;9.314;2022-09-11T09:24:59;58.90;;;4.07;;
1308;SDS011;647;48.840;9.314;2022-09-11T09:27:28;60.60;;;5.00;;
1308;SDS011;647;48.840;9.314;2022-09-11T09:29:57;59.50;;;4.53;;
1308;SDS011;647;48.840;9.314;2022-09-11T09:32:27;58.90;;;3.63;;
1308;SDS011;647;48.840;9.314;2022-09-11T09:34:57;62.10;;;4.40;;
1308;SDS011;647;48.840;9.314;2022-09-11T09:37:26;59.60;;;4.67;;
1308;SDS011;647;48.840;9.314;2022-09-11T09:39:53;60.40;;;4.30;;
1308;SDS011;647;48.840;9.314;2022-09-11T09:45:24;60.27;;;4.23;;
1308;SDS011;647;48.840;9.314;2022-09-11T09:47:58;59.60;;;4.20;;
1308;SDS011;647;48.840;9.314;2022-09-11T09:50:27;59.80;;;4.07;;
1308;SDS011;647;48.840;9.314;2022-09-11T09:52:56;60.97;;;4.07;;
1308;SDS011;647;48.840;9.314;2022-09-11T09:55:25;59.57;;;4.33;;
1308;SDS011;647;48.840;9.314;2022-09-11T09:57:52;59.00;;;4.00;;
1308;SDS011;647;48.840;9.314;2022-09-11T10:00:19;59.67;;;4.10;;
1308;SDS011;647;48.840;9.314;2022-09-11T10:02:48;58.40;;;3.30;;
1308;SDS011;647;48.840;9.314;2022-09-11T10:05:19;59.90;;;3.87;;
1308;SDS011;647;48.840;9.314;2022-09-11T10:07:47;59.10;;;3.90;;
1308;SDS011;647;48.840;9.314;2022-09-11T10:10:25;58.80;;;3.67;;
1308;SDS011;647;48.840;9.314;2022-09-11T10:12:53;58.60;;;3.27;;
1308;SDS011;647;48.840;9.314;2022-09-11T10:15:21;58.80;;;3.70;;
1308;SDS011;647;48.840;9.314;2022-09-11T10:17:51;60.03;;;3.80;;
1308;SDS011;647;48.840;9.314;2022-09-11T10:20:22;58.90;;;3.40;;
1308;SDS011;647;48.840;9.314;2022-09-11T10:22:51;59.00;;;3.93;;
1308;SDS011;647;48.840;9.314;2022-09-11T10:25:19;58.60;;;3.60;;
1308;SDS011;647;48.840;9.314;2022-09-11T10:27:51;59.07;;;3.70;;
1308;SDS011;647;48.840;9.314;2022-09-11T10:30:24;68.10;;;3.83;;
1308;SDS011;647;48.840;9.314;2022-09-11T10:32:54;60.93;;;3.40;;
1308;SDS011;647;48.840;9.314;2022-09-11T10:35:22;59.40;;;3.57;;
1308;SDS011;647;48.840;9.314;2022-09-11T10:40:33;60.73;;;3.93;;
1308;SDS011;647;48.840;9.314;2022-09-11T10:43:04;58.97;;;3.60;;
1308;SDS011;647;48.840;9.314;2022-09-11T10:45:32;60.50;;;4.33;;
1308;SDS011;647;48.840;9.314;2022-09-11T10:48:06;60.10;;;3.87;;
1308;SDS011;647;48.840;9.314;2022-09-11T10:50:39;60.23;;;4.47;;
1308;SDS011;647;48.840;9.314;2022-09-11T10:53:11;60.43;;;4.17;;
1308;SDS011;647;48.840;9.314;2022-09-11T10:55:41;59.60;;;4.43;;
1308;SDS011;647;48.840;9.314;2022-09-11T10:58:12;60.03;;;4.57;;
1308;SDS011;647;48.840;9.314;2022-09-11T11:00:40;60.70;;;4.70;;
1308;SDS011;647;48.840;9.314;2022-09-11T11:03:10;61.20;;;5.07;;
1308;SDS011;647;48.840;9.314;2022-09-11T11:05:43;60.03;;;4.70;;
1308;SDS011;647;48.840;9.314;2022-09-11T11:08:24;59.97;;;5.00;;
1308;SDS011;647;48.840;9.314;2022-09-11T11:13:44;60.70;;;3.57;;
1308;SDS011;647;48.840;9.314;2022-09-11T11:16:15;58.70;;;3.00;;
1308;SDS011;647;48.840;9.314;2022-09-11T11:18:49;96.17;;;6.33;;
1308;SDS011;647;48.840;9.314;2022-09-11T11:21:21;58.40;;;3.00;;
1308;SDS011;647;48.840;9.314;2022-09-11T11:23:55;59.00;;;3.03;;
1308;SDS011;647;48.840;9.314;2022-09-11T11:26:32;58.50;;;3.17;;
1308;SDS011;647;48.840;9.314;2022-09-11T11:29:16;58.07;;;3.17;;
1308;SDS011;647;48.840;9.314;2022-09-11T11:31:48;58.10;;;3.30;;
1308;SDS011;647;48.840;9.314;2022-09-11T11:34:22;58.80;;;3.27;;
1308;SDS011;647;48.840;9.314;2022-09-11T11:36:52;58.50;;;3.27;;
1308;SDS011;647;48.840;9.314;2022-09-11T11:39:22;58.50;;;3.50;;
1308;SDS011;647;48.840;9.314;2022-09-11T11:41:54;58.97;;;3.17;;
1308;SDS011;647;48.840;9.314;2022-09-11T11:44:27;62.07;;;4.37;;
1308;SDS011;647;48.840;9.314;2022-09-11T11:46:55;59.50;;;2.93;;
1308;SDS011;647;48.840;9.314;2022-09-11T11:49:28;58.33;;;3.10;;
1308;SDS011;647;48.840;9.314;2022-09-11T11:52:01;58.70;;;2.77;;
1308;SDS011;647;48.840;9.314;2022-09-11T11:54:31;58.00;;;3.00;;
1308;SDS011;647;48.840;9.314;2022-09-11T11:57:05;58.03;;;2.70;;
1308;SDS011;647;48.840;9.314;2022-09-11T11:59:37;62.30;;;3.20;;
1308;SDS011;647;48.840;9.314;2022-09-11T12:02:11;58.40;;;3.50;;
1308;SDS011;647;48.840;9.314;2022-09-11T12:04:42;58.40;;;3.13;;
1308;SDS011;647;48.840;9.314;2022-09-11T12:07:13;61.90;;;3.47;;
1308;SDS011;647;48.840;9.314;2022-09-11T12:09:44;57.97;;;2.93;;
1308;SDS011;647;48.840;9.314;2022-09-11T12:12:13;57.70;;;3.10;;
1308;SDS011;647;48.840;9.314;2022-09-11T12:14:46;58.47;;;3.37;;
1308;SDS011;647;48.840;9.314;2022-09-11T12:17:14;58.50;;;2.77;;
1308;SDS011;647;48.840;9.314;2022-09-11T12:22:37;57.87;;;2.87;;
1308;SDS011;647;48.840;9.314;2022-09-11T12:25:07;58.00;;;3.40;;
1308;SDS011;647;48.840;9.314;2022-09-11T12:27:53;57.80;;;2.77;;
1308;SDS011;647;48.840;9.314;2022-09-11T12:35:58;57.57;;;3.07;;
1308;SDS011;647;48.840;9.314;2022-09-11T12:38:28;59.23;;;3.20;;
1308;SDS011;647;48.840;9.314;2022-09-11T12:40:57;57.80;;;2.87;;
1308;SDS011;647;48.840;9.314;2022-09-11T12:43:44;58.93;;;3.10;;
1308;SDS011;647;48.840;9.314;2022-09-11T12:46:12;58.43;;;3.20;;
1308;SDS011;647;48.840;9.314;2022-09-11T12:48:59;58.00;;;2.67;;
1308;SDS011;647;48.840;9.314;2022-09-11T12:51:33;58.50;;;3.03;;
1308;SDS011;647;48.840;9.314;2022-09-11T12:54:10;58.80;;;3.00;;
1308;SDS011;647;48.840;9.314;2022-09-11T12:56:43;58.80;;;3.37;;
1308;SDS011;647;48.840;9.314;2022-09-11T12:59:17;58.50;;;3.47;;
1308;SDS011;647;48.840;9.314;2022-09-11T13:01:48;59.47;;;4.00;;
1308;SDS011;647;48.840;9.314;2022-09-11T13:04:16;59.80;;;4.03;;
1308;SDS011;647;48.840;9.314;2022-09-11T13:06:44;60.47;;;3.43;;
1308;SDS011;647;48.840;9.314;2022-09-11T13:09:18;59.23;;;3.97;;
1308;SDS011;647;48.840;9.314;2022-09-11T13:11:47;58.97;;;3.70;;
1308;SDS011;647;48.840;9.314;2022-09-11T13:17:01;59.67;;;4.03;;
1308;SDS011;647;48.840;9.314;2022-09-11T13:19:30;60.00;;;4.47;;
1308;SDS011;647;48.840;9.314;2022-09-11T13:21:57;59.23;;;4.10;;
1308;SDS011;647;48.840;9.314;2022-09-11T13:24:27;60.50;;;4.77;;
1308;SDS011;647;48.840;9.314;2022-09-11T13:26:54;60.07;;;4.20;;
1308;SDS011;647;48.840;9.314;2022-09-11T13:29:24;60.13;;;4.40;;
1308;SDS011;647;48.840;9.314;2022-09-11T13:31:53;59.77;;;4.30;;
1308;SDS011;647;48.840;9.314;2022-09-11T13:34:22;59.13;;;4.10;;
1308;SDS011;647;48.840;9.314;2022-09-11T13:36:50;59.57;;;4.40;;
1308;SDS011;647;48.840;9.314;2022-09-11T13:39:18;59.40;;;4.00;;
1308;SDS011;647;48.840;9.314;2022-09-11T13:41:47;59.97;;;4.27;;
1308;SDS011;647;48.840;9.314;2022-09-11T13:44:25;59.70;;;3.60;;
1308;SDS011;647;48.840;9.314;2022-09-11T13:46:53;59.23;;;4.00;;
1308;SDS011;647;48.840;9.314;2022-09-11T13:49:24;59.20;;;3.77;;
1308;SDS011;647;48.840;9.314;2022-09-11T13:51:52;59.77;;;4.60;;
1308;SDS011;647;48.840;9.314;2022-09-11T13:54:22;58.70;;;3.50;;
1308;SDS011;647;48.840;9.314;2022-09-11T13:59:35;59.77;;;3.70;;
1308;SDS011;647;48.840;9.314;2022-09-11T14:02:04;59.50;;;4.70;;
1308;SDS011;647;48.840;9.314;2022-09-11T14:04:36;60.67;;;4.10;;
1308;SDS011;647;48.840;9.314;2022-09-11T14:07:11;59.30;;;3.93;;
1308;SDS011;647;48.840;9.314;2022-09-11T14:09:39;59.50;;;4.13;;
1308;SDS011;647;48.840;9.314;2022-09-11T14:12:06;60.07;;;3.60;;
1308;SDS011;647;48.840;9.314;2022-09-11T14:14:34;58.40;;;3.57;;
1308;SDS011;647;48.840;9.314;2022-09-11T14:17:02;59.17;;;3.67;;
1308;SDS011;647;48.840;9.314;2022-09-11T14:19:29;59.33;;;3.90;;
1308;SDS011;647;48.840;9.314;2022-09-11T14:21:58;59.13;;;3.80;;
1308;SDS011;647;48.840;9.314;2022-09-11T14:24:26;59.53;;;4.40;;
1308;SDS011;647;48.840;9.314;2022-09-11T14:26:53;59.87;;;4.30;;
1308;SDS011;647;48.840;9.314;2022-09-11T14:29:22;58.80;;;3.60;;
1308;SDS011;647;48.840;9.314;2022-09-11T14:31:51;58.97;;;3.77;;
1308;SDS011;647;48.840;9.314;2022-09-11T14:34:19;60.50;;;3.80;;
1308;SDS011;647;48.840;9.314;2022-09-11T14:36:49;59.00;;;3.33;;
1308;SDS011;647;48.840;9.314;2022-09-11T14:39:21;58.53;;;3.40;;
1308;SDS011;647;48.840;9.314;2022-09-11T14:41:49;85.73;;;5.70;;
1308;SDS011;647;48.840;9.314;2022-09-11T14:44:16;58.30;;;2.90;;
1308;SDS011;647;48.840;9.314;2022-09-11T14:46:45;58.77;;;3.80;;
1308;SDS011;647;48.840;9.314;2022-09-11T14:49:13;59.07;;;3.50;;
1308;SDS011;647;48.840;9.314;2022-09-11T14:51:41;58.70;;;3.70;;
1308;SDS011;647;48.840;9.314;2022-09-11T14:54:09;59.77;;;3.40;;
1308;SDS011;647;48.840;9.314;2022-09-11T14:56:38;58.40;;;3.43;;
1308;SDS011;647;48.840;9.314;2022-09-11T14:59:05;59.07;;;3.40;;
1308;SDS011;647;48.840;9.314;2022-09-11T15:01:32;58.70;;;3.57;;
1308;SDS011;647;48.840;9.314;2022-09-11T15:04:00;58.60;;;3.50;;
1308;SDS011;647;48.840;9.314;2022-09-11T15:06:29;63.07;;;3.40;;
1308;SDS011;647;48.840;9.314;2022-09-11T15:08:56;58.13;;;2.93;;
1308;SDS011;647;48.840;9.314;2022-09-11T15:11:25;61.90;;;3.70;;
1308;SDS011;647;48.840;9.314;2022-09-11T15:13:52;71.53;;;4.47;;
1308;SDS011;647;48.840;9.314;2022-09-11T15:16:21;59.77;;;4.43;;
1308;SDS011;647;48.840;9.314;2022-09-11T15:18:48;59.07;;;3.67;;
1308;SDS011;647;48.840;9.314;2022-09-11T15:21:15;59.97;;;3.80;;
1308;SDS011;647;48.840;9.314;2022-09-11T15:23:44;58.90;;;3.70;;
1308;SDS011;647;48.840;9.314;2022-09-11T15:26:14;59.47;;;4.10;;
1308;SDS011;647;48.840;9.314;2022-09-11T15:28:41;60.03;;;3.67;;
1308;SDS011;647;48.840;9.314;2022-09-11T15:31:08;60.07;;;4.33;;
1308;SDS011;647;48.840;9.314;2022-09-11T15:33:36;58.73;;;3.43;;
1308;SDS011;647;48.840;9.314;2022-09-11T15:36:03;59.50;;;3.73;;
1308;SDS011;647;48.840;9.314;2022-09-11T15:38:31;59.17;;;3.60;;
1308;SDS011;647;48.840;9.314;2022-09-11T15:40:59;58.97;;;4.00;;
1308;SDS011;647;48.840;9.314;2022-09-11T15:43:32;59.57;;;3.73;;
1308;SDS011;647;48.840;9.314;2022-09-11T15:46:00;59.50;;;3.57;;
1308;SDS011;647;48.840;9.314;2022-09-11T15:48:32;58.83;;;3.47;;
1308;SDS011;647;48.840;9.314;2022-09-11T15:51:00;59.40;;;3.87;;
1308;SDS011;647;48.840;9.314;2022-09-11T15:53:27;60.60;;;4.53;;
1308;SDS011;647;48.840;9.314;2022-09-11T15:56:06;59.30;;;3.73;;